Pulaski, TN (38478)

5:30 PM CST on December 07, 2016 (GMT -0600)
Giles County Courthouse Annex | | Change Station

Elev 730 ft 35.20 °N, 87.03 °W | Updated 37 seconds ago

Partly Cloudy
Partly Cloudy
40.8 °F
Feels Like 41 °F
N
1.4
Wind Variable Wind from NE
Gusts 1.7 mph

Today
High -- | Low -- °F
--% Chance of Precip.
Yesterday
High -- | Low -- °F
Precip. -- in
Pressure 30.13 in
Visibility 10.0 miles
Clouds Few 3700 ft
Windchill 41 °F
Dew Point 31 °F
Humidity 67%
Rainfall 0.00 in
Snow Depth Not available.
6:43 AM 4:35 PM
First Quarter, 57% visible
METAR KMRC 072315Z AUTO 00000KT 10SM FEW037 06/04 A3013 RMK
Pressure 30.13 in
Visibility 10.0 miles
Clouds Few 3700 ft
Windchill 41 °F
Dew Point 31 °F
Humidity 67%
Rainfall 0.00 in
Snow Depth Not available.
6:43 AM 4:35 PM
First Quarter, 57% visible
METAR KMRC 072315Z AUTO 00000KT 10SM FEW037 06/04 A3013 RMK

10-Day Weather Forecast

Almanac

Astronomy

Dec. 07, 2016 Rise Set
Actual Time
Civil Twilight
Nautical Twilight
Astronomical Twilight
Moon
Length of Visible Light
Length of Day
Tomorrow will be .
, % of the Moon is Illuminated

Today's Extremes

State Highs State Lows

Community

WunderPhotos

Upload Photos

1,956,219 photos uploaded!

WunderBlog® & News

Nearby

Air Quality

  Air Quality AQ Index Pollutant
Not available.

Snow Depth

Station Depth Elevation

Earthquake Activity

City Distance Mag. Time & Date
Minimum magnitude displayed is 2.5.

Coastal Water Temperatures

Place Temperature

Stations

Nearby Weather Stations

Station Location Temp. Windchill Dew Point Humidity Wind Precip. Elev Updated Type
                   

Watches & Warnings

There are currently no watches in effect.